createdAt,value
2023-01-09T00:02:05.124Z,6.40
2023-01-09T00:04:32.028Z,6.50
2023-01-09T00:06:58.849Z,6.40
2023-01-09T00:09:25.771Z,6.30
2023-01-09T00:11:54.948Z,6.40
2023-01-09T00:14:23.094Z,6.40
2023-01-09T00:16:50.313Z,6.40
2023-01-09T00:19:17.176Z,6.40
2023-01-09T00:21:44.047Z,6.40
2023-01-09T00:24:10.801Z,6.40
2023-01-09T00:26:37.886Z,6.40
2023-01-09T00:29:04.973Z,6.40
2023-01-09T00:31:32.007Z,6.50
2023-01-09T00:34:02.519Z,6.40
2023-01-09T00:36:29.580Z,6.40
2023-01-09T00:38:56.542Z,6.40
2023-01-09T00:41:46.378Z,6.40
2023-01-09T00:44:31.994Z,6.50
2023-01-09T00:47:11.432Z,6.40
2023-01-09T00:49:38.411Z,6.40
2023-01-09T00:52:07.241Z,6.50
2023-01-09T00:54:34.129Z,6.40
2023-01-09T00:57:01.278Z,6.40
2023-01-09T00:59:28.458Z,6.40
2023-01-09T01:01:55.388Z,6.50
2023-01-09T01:04:40.766Z,6.40
2023-01-09T01:07:26.247Z,6.50
2023-01-09T01:09:53.066Z,6.50
2023-01-09T01:12:19.964Z,6.50
2023-01-09T01:14:46.776Z,6.50
2023-01-09T01:17:13.602Z,6.50
2023-01-09T01:19:40.428Z,6.50
2023-01-09T01:22:07.254Z,6.50
2023-01-09T01:24:34.009Z,6.50
2023-01-09T01:27:00.758Z,6.50
2023-01-09T01:29:27.650Z,6.50
2023-01-09T01:31:54.542Z,6.50
2023-01-09T01:34:21.367Z,6.50
2023-01-09T01:36:48.212Z,6.50
2023-01-09T01:39:14.957Z,6.60
2023-01-09T01:41:42.193Z,6.60
2023-01-09T01:44:46.561Z,6.60
2023-01-09T01:47:14.778Z,6.50
2023-01-09T01:49:41.754Z,6.50
2023-01-09T01:52:08.852Z,6.50
2023-01-09T01:54:36.454Z,6.50
2023-01-09T01:57:05.872Z,6.50
2023-01-09T01:59:50.288Z,6.40
2023-01-09T02:02:24.106Z,6.40
2023-01-09T02:04:53.737Z,6.40
2023-01-09T02:07:20.700Z,6.50
2023-01-09T02:09:47.505Z,6.50
2023-01-09T02:12:26.239Z,6.40
2023-01-09T02:15:09.768Z,6.50
2023-01-09T02:17:49.966Z,6.40
2023-01-09T02:20:22.605Z,6.40
2023-01-09T02:23:18.393Z,6.40
2023-01-09T02:26:22.889Z,6.40
2023-01-09T02:29:10.569Z,6.40
2023-01-09T02:31:40.041Z,6.40
2023-01-09T02:34:20.362Z,6.40
2023-01-09T02:36:50.162Z,6.40
2023-01-09T02:39:34.854Z,6.40
2023-01-09T02:42:12.775Z,6.30
2023-01-09T02:44:43.063Z,6.30
2023-01-09T02:47:16.022Z,6.30
2023-01-09T02:49:46.219Z,6.40
2023-01-09T02:52:37.652Z,6.40
2023-01-09T02:55:17.754Z,6.40
2023-01-09T02:58:12.546Z,6.40
2023-01-09T03:01:04.864Z,6.30
2023-01-09T03:04:05.270Z,6.30
2023-01-09T03:06:54.254Z,6.30
2023-01-09T03:09:25.045Z,6.30
2023-01-09T03:11:57.666Z,6.30
2023-01-09T03:14:26.274Z,6.30
2023-01-09T03:16:58.619Z,6.20
2023-01-09T03:19:29.761Z,6.20
2023-01-09T03:21:57.503Z,6.10
2023-01-09T03:24:24.281Z,6.10
2023-01-09T03:26:51.514Z,6.10
2023-01-09T03:29:18.359Z,6.10
2023-01-09T03:31:45.244Z,6.10
2023-01-09T03:34:12.122Z,6.10
2023-01-09T03:36:39.109Z,6.10
2023-01-09T03:39:05.951Z,6.00
2023-01-09T03:41:32.720Z,6.00
2023-01-09T03:43:59.499Z,6.10
2023-01-09T03:46:26.259Z,6.00
2023-01-09T03:48:53.004Z,6.10
2023-01-09T03:51:19.747Z,6.10
2023-01-09T03:53:46.520Z,6.00
2023-01-09T03:56:13.292Z,6.10
2023-01-09T03:58:40.020Z,6.00
2023-01-09T04:01:12.934Z,6.10
2023-01-09T04:03:40.101Z,6.00
2023-01-09T04:06:07.394Z,6.10
2023-01-09T04:08:34.135Z,6.00
2023-01-09T04:11:01.253Z,6.00
2023-01-09T04:13:27.929Z,6.10
2023-01-09T04:15:54.774Z,6.10
2023-01-09T04:18:21.561Z,6.10
2023-01-09T04:20:49.108Z,6.00
2023-01-09T04:23:16.186Z,6.00
2023-01-09T04:25:42.961Z,5.90
2023-01-09T04:28:09.633Z,5.90
2023-01-09T04:30:36.401Z,5.90
2023-01-09T04:33:03.199Z,5.80
2023-01-09T04:35:30.080Z,5.70
2023-01-09T04:37:56.714Z,5.70
2023-01-09T04:40:23.382Z,5.70
2023-01-09T04:42:50.208Z,5.60
2023-01-09T04:45:17.250Z,5.60
2023-01-09T04:47:44.930Z,5.60
2023-01-09T04:50:12.800Z,5.50
2023-01-09T04:52:39.661Z,5.50
2023-01-09T04:55:08.030Z,5.40
2023-01-09T04:57:35.698Z,5.40
2023-01-09T05:00:03.566Z,5.40
2023-01-09T05:02:30.348Z,5.30
2023-01-09T05:04:57.122Z,5.30
2023-01-09T05:07:23.884Z,5.30
2023-01-09T05:09:50.531Z,5.20
2023-01-09T05:12:17.346Z,5.20
2023-01-09T05:14:44.023Z,5.10
2023-01-09T05:17:10.715Z,5.10
2023-01-09T05:19:37.923Z,5.10
2023-01-09T05:22:04.894Z,5.00
2023-01-09T05:24:31.842Z,5.00
2023-01-09T05:26:58.599Z,4.90
2023-01-09T05:29:25.527Z,4.90
2023-01-09T05:31:52.787Z,4.80
2023-01-09T05:34:20.068Z,4.80
2023-01-09T05:36:46.926Z,4.80
2023-01-09T05:39:13.764Z,4.70
2023-01-09T05:41:40.484Z,4.70
2023-01-09T05:44:07.273Z,4.70
2023-01-09T05:46:34.076Z,4.70
2023-01-09T05:49:00.773Z,4.60
2023-01-09T05:51:27.520Z,4.60
2023-01-09T05:53:54.251Z,4.60
2023-01-09T05:56:21.012Z,4.50
2023-01-09T05:58:47.708Z,4.50
2023-01-09T06:01:14.531Z,4.50
2023-01-09T06:03:41.412Z,4.50
2023-01-09T06:06:08.234Z,4.50
2023-01-09T06:08:35.021Z,4.50
2023-01-09T06:11:01.783Z,4.40
2023-01-09T06:13:28.450Z,4.40
2023-01-09T06:15:55.115Z,4.40
2023-01-09T06:18:21.781Z,4.50
2023-01-09T06:20:48.457Z,4.40
2023-01-09T06:23:15.185Z,4.30
2023-01-09T06:25:42.278Z,4.20
2023-01-09T06:28:09.295Z,4.20
2023-01-09T06:30:36.075Z,4.10
2023-01-09T06:33:02.983Z,4.10
2023-01-09T06:35:29.693Z,4.10
2023-01-09T06:37:58.395Z,4.10
2023-01-09T06:40:25.130Z,4.10
2023-01-09T06:42:51.818Z,4.20
2023-01-09T06:45:18.562Z,4.10
2023-01-09T06:47:45.325Z,4.10
2023-01-09T06:50:12.563Z,4.10
2023-01-09T06:52:40.024Z,4.00
2023-01-09T06:55:07.778Z,4.10
2023-01-09T06:57:34.522Z,4.10
2023-01-09T07:00:01.458Z,4.00
2023-01-09T07:02:28.249Z,4.10
2023-01-09T07:04:55.065Z,4.10
2023-01-09T07:07:22.602Z,4.10
2023-01-09T07:09:49.487Z,4.10
2023-01-09T07:12:16.386Z,4.10
2023-01-09T07:14:43.357Z,4.10
2023-01-09T07:17:13.424Z,4.10
2023-01-09T07:19:40.170Z,4.10
2023-01-09T07:22:06.948Z,4.20
2023-01-09T07:24:33.823Z,4.10
2023-01-09T07:27:00.547Z,4.20
2023-01-09T07:29:27.272Z,4.10
2023-01-09T07:31:54.013Z,4.10
2023-01-09T07:34:20.722Z,4.20
2023-01-09T07:36:48.767Z,4.20
2023-01-09T07:39:15.697Z,4.20
2023-01-09T07:41:42.532Z,4.20
2023-01-09T07:44:11.071Z,4.20
2023-01-09T07:46:38.286Z,4.30
2023-01-09T07:49:05.063Z,4.20
2023-01-09T07:51:31.872Z,4.20
2023-01-09T07:53:58.533Z,4.20
2023-01-09T07:56:25.283Z,4.40
2023-01-09T07:58:52.043Z,4.20
2023-01-09T08:01:18.827Z,4.20
2023-01-09T08:03:45.732Z,4.20
2023-01-09T08:06:12.423Z,4.20
2023-01-09T08:08:39.145Z,4.20
2023-01-09T08:11:06.061Z,4.20
2023-01-09T08:13:32.805Z,4.10
2023-01-09T08:15:59.607Z,4.10
2023-01-09T08:18:26.406Z,4.10
2023-01-09T08:20:53.106Z,4.10
2023-01-09T08:23:19.786Z,4.10
2023-01-09T08:25:46.597Z,4.10
2023-01-09T08:28:13.394Z,4.10
2023-01-09T08:30:40.196Z,4.10
2023-01-09T08:33:06.896Z,4.20
2023-01-09T08:35:33.726Z,4.10
2023-01-09T08:38:00.411Z,4.30
2023-01-09T08:40:27.122Z,4.30
2023-01-09T08:43:12.441Z,4.30
2023-01-09T08:45:57.858Z,4.40
2023-01-09T08:48:24.852Z,4.40
2023-01-09T08:50:54.028Z,4.50
2023-01-09T08:53:20.939Z,4.60
2023-01-09T08:55:47.860Z,4.50
2023-01-09T08:58:14.544Z,4.70
2023-01-09T09:00:41.553Z,4.80
2023-01-09T09:03:09.953Z,4.90
2023-01-09T09:05:36.766Z,4.90
2023-01-09T09:08:04.129Z,5.00
2023-01-09T09:10:31.149Z,5.20
2023-01-09T09:12:59.363Z,5.20
2023-01-09T09:15:27.451Z,5.30
2023-01-09T09:18:03.056Z,5.40
2023-01-09T09:20:32.570Z,5.50
2023-01-09T09:22:59.531Z,5.60
2023-01-09T09:25:26.897Z,5.90
2023-01-09T09:27:55.840Z,5.90
2023-01-09T09:30:23.574Z,5.90
2023-01-09T09:32:50.446Z,6.10
2023-01-09T09:35:21.176Z,6.20
2023-01-09T09:38:04.854Z,6.30
2023-01-09T09:40:48.833Z,6.30
2023-01-09T09:43:57.384Z,6.20
2023-01-09T09:46:33.001Z,6.10
2023-01-09T09:49:13.112Z,5.90
2023-01-09T09:51:50.558Z,6.10
2023-01-09T09:54:26.494Z,6.50
2023-01-09T09:56:56.988Z,6.50
2023-01-09T09:59:37.063Z,6.40
2023-01-09T10:02:09.691Z,6.40
2023-01-09T10:04:42.668Z,6.20
2023-01-09T10:07:24.292Z,6.10
2023-01-09T10:10:26.036Z,6.00
2023-01-09T10:13:20.389Z,6.00
2023-01-09T10:15:58.199Z,5.90
2023-01-09T10:18:32.432Z,5.90
2023-01-09T10:21:13.165Z,5.90
2023-01-09T10:24:06.447Z,5.90
2023-01-09T10:26:43.182Z,5.90
2023-01-09T10:29:36.584Z,5.90
2023-01-09T10:32:06.294Z,5.90
2023-01-09T10:34:58.743Z,6.00
2023-01-09T10:37:39.835Z,6.00
2023-01-09T10:40:23.845Z,6.00
2023-01-09T10:42:52.298Z,6.00
2023-01-09T10:45:42.414Z,6.00
2023-01-09T10:48:26.433Z,5.90
2023-01-09T10:50:55.840Z,5.90
2023-01-09T10:53:28.950Z,6.00
2023-01-09T10:56:01.755Z,6.00
2023-01-09T10:58:29.500Z,6.10
2023-01-09T11:00:58.886Z,6.00
2023-01-09T11:03:28.004Z,6.00
2023-01-09T11:05:58.337Z,6.00
2023-01-09T11:08:44.411Z,6.00
2023-01-09T11:11:12.783Z,6.00
2023-01-09T11:13:45.428Z,6.00
2023-01-09T11:16:19.778Z,6.00
2023-01-09T11:18:55.703Z,6.10
2023-01-09T11:21:36.107Z,6.00
2023-01-09T11:24:27.427Z,6.00
2023-01-09T11:27:12.698Z,6.00
2023-01-09T11:29:42.941Z,6.10
2023-01-09T11:32:25.300Z,6.20
2023-01-09T11:34:52.486Z,6.60
2023-01-09T11:37:25.936Z,6.90
2023-01-09T11:39:53.024Z,7.20
2023-01-09T11:42:45.194Z,7.20
2023-01-09T11:45:19.285Z,7.20
2023-01-09T11:47:47.396Z,7.30
2023-01-09T11:50:22.638Z,7.20
2023-01-09T11:53:12.300Z,7.10
2023-01-09T11:55:42.838Z,7.10
2023-01-09T11:58:18.291Z,7.00
2023-01-09T12:00:59.207Z,7.00
2023-01-09T12:03:28.831Z,6.90
2023-01-09T12:06:07.338Z,6.90
2023-01-09T12:08:56.959Z,6.90
2023-01-09T12:11:27.472Z,6.90
2023-01-09T12:14:23.423Z,6.90
2023-01-09T12:17:20.281Z,6.80
2023-01-09T12:20:10.292Z,6.90
2023-01-09T12:23:04.515Z,6.90
2023-01-09T12:25:40.941Z,6.80
2023-01-09T12:28:34.246Z,6.90
2023-01-09T12:31:12.969Z,7.00
2023-01-09T12:33:42.833Z,7.00
2023-01-09T12:36:17.781Z,7.00
2023-01-09T12:39:00.236Z,7.00
2023-01-09T12:41:40.002Z,7.20
2023-01-09T12:44:36.333Z,7.30
2023-01-09T12:47:13.072Z,7.30
2023-01-09T12:49:48.120Z,7.30
2023-01-09T12:52:23.204Z,7.30
2023-01-09T12:54:57.260Z,7.20
2023-01-09T12:57:40.400Z,7.30
2023-01-09T13:00:22.040Z,7.20
2023-01-09T13:03:11.275Z,7.20
2023-01-09T13:05:49.118Z,7.10
2023-01-09T13:08:29.375Z,7.10
2023-01-09T13:11:21.041Z,7.00
2023-01-09T13:14:14.863Z,7.00
2023-01-09T13:16:46.699Z,6.90
2023-01-09T13:19:28.866Z,6.80
2023-01-09T13:21:57.599Z,6.80
2023-01-09T13:24:43.052Z,6.80
2023-01-09T13:27:13.087Z,6.80
2023-01-09T13:29:45.746Z,6.80
2023-01-09T13:32:38.425Z,6.80
2023-01-09T13:35:05.482Z,6.80
2023-01-09T13:37:35.395Z,6.70
2023-01-09T13:40:27.769Z,6.70
2023-01-09T13:43:05.066Z,6.80
2023-01-09T13:45:35.492Z,6.70
2023-01-09T13:48:11.852Z,6.70
2023-01-09T13:50:39.503Z,6.60
2023-01-09T13:53:18.235Z,6.50
2023-01-09T13:55:57.419Z,6.50
2023-01-09T13:59:02.968Z,6.60
2023-01-09T14:01:37.434Z,6.50
2023-01-09T14:04:10.021Z,6.50
2023-01-09T14:06:37.429Z,6.40
2023-01-09T14:09:24.607Z,6.50
2023-01-09T14:12:04.556Z,6.50
2023-01-09T14:14:33.669Z,6.60
2023-01-09T14:17:03.350Z,6.60
2023-01-09T14:19:32.493Z,6.50
2023-01-09T14:22:00.852Z,6.50
2023-01-09T14:24:47.100Z,6.50
2023-01-09T14:27:51.700Z,6.50
2023-01-09T14:30:27.330Z,6.60
2023-01-09T14:33:19.244Z,6.50
2023-01-09T14:36:00.650Z,6.50
2023-01-09T14:38:48.872Z,6.50
2023-01-09T14:41:15.480Z,6.50
2023-01-09T14:44:05.236Z,6.50
2023-01-09T14:46:38.051Z,6.40
2023-01-09T14:49:30.443Z,6.40
2023-01-09T14:51:59.008Z,6.40
2023-01-09T14:54:33.616Z,6.30
2023-01-09T14:57:02.458Z,6.30
2023-01-09T14:59:29.897Z,6.30
2023-01-09T15:01:59.365Z,6.30
2023-01-09T15:04:36.323Z,6.30
2023-01-09T15:07:04.635Z,6.30
2023-01-09T15:09:45.072Z,6.20
2023-01-09T15:12:20.570Z,6.20
2023-01-09T15:14:52.153Z,6.20
2023-01-09T15:17:26.092Z,6.20
2023-01-09T15:19:53.635Z,6.20
2023-01-09T15:22:38.572Z,6.10
2023-01-09T15:25:22.784Z,6.00
2023-01-09T15:27:58.022Z,6.00
2023-01-09T15:30:36.830Z,6.00
2023-01-09T15:33:10.240Z,5.90
2023-01-09T15:35:42.948Z,5.90
2023-01-09T15:38:16.686Z,5.90
2023-01-09T15:40:43.989Z,5.80
2023-01-09T15:43:14.702Z,5.80
2023-01-09T15:45:43.748Z,5.70
2023-01-09T15:48:34.589Z,5.60
2023-01-09T15:51:18.291Z,5.50
2023-01-09T15:53:48.488Z,5.50
2023-01-09T15:56:25.243Z,5.50
2023-01-09T15:58:54.229Z,5.40
2023-01-09T16:01:31.894Z,5.40
2023-01-09T16:04:08.712Z,5.20
2023-01-09T16:06:38.377Z,5.20
2023-01-09T16:09:16.512Z,5.30
2023-01-09T16:11:48.801Z,5.20
2023-01-09T16:14:22.065Z,5.20
2023-01-09T16:16:50.828Z,5.20
2023-01-09T16:19:47.712Z,5.10
2023-01-09T16:22:29.204Z,5.10
2023-01-09T16:25:01.388Z,5.10
2023-01-09T16:27:34.597Z,5.00
2023-01-09T16:30:04.520Z,5.10
2023-01-09T16:32:45.200Z,5.00
2023-01-09T16:35:24.957Z,5.10
2023-01-09T16:37:51.819Z,5.00
2023-01-09T16:40:18.540Z,5.00
2023-01-09T16:43:01.115Z,5.10
2023-01-09T16:45:42.024Z,5.10
2023-01-09T16:48:20.749Z,4.90
2023-01-09T16:50:48.228Z,4.90
2023-01-09T16:53:24.096Z,4.90
2023-01-09T16:55:56.081Z,4.90
2023-01-09T16:58:35.230Z,4.90
2023-01-09T17:01:02.180Z,5.00
2023-01-09T17:03:28.930Z,4.90
2023-01-09T17:05:58.269Z,4.90
2023-01-09T17:08:28.527Z,4.90
2023-01-09T17:10:56.470Z,4.80
2023-01-09T17:13:24.468Z,4.90
2023-01-09T17:15:53.048Z,4.80
2023-01-09T17:18:22.110Z,4.70
2023-01-09T17:20:52.385Z,4.70
2023-01-09T17:23:20.880Z,4.70
2023-01-09T17:26:08.287Z,4.70
2023-01-09T17:28:36.109Z,4.70
2023-01-09T17:31:10.002Z,4.70
2023-01-09T17:33:38.386Z,4.70
2023-01-09T17:36:20.960Z,4.60
2023-01-09T17:38:54.487Z,4.60
2023-01-09T17:41:26.163Z,4.60
2023-01-09T17:43:53.720Z,4.60
2023-01-09T17:46:30.603Z,4.50
2023-01-09T17:48:57.951Z,4.50
2023-01-09T17:51:24.985Z,4.40
2023-01-09T17:53:52.123Z,4.50
2023-01-09T17:56:21.765Z,4.40
2023-01-09T17:58:48.950Z,4.50
2023-01-09T18:01:17.403Z,4.50
2023-01-09T18:03:46.908Z,4.50
2023-01-09T18:06:14.045Z,4.50
2023-01-09T18:08:41.019Z,4.50
2023-01-09T18:11:13.830Z,4.50
2023-01-09T18:13:41.396Z,4.50
2023-01-09T18:16:17.152Z,4.50
2023-01-09T18:18:45.148Z,4.40
2023-01-09T18:21:15.348Z,4.40
2023-01-09T18:23:42.165Z,4.40
2023-01-09T18:26:10.667Z,4.40
2023-01-09T18:28:38.078Z,4.40
2023-01-09T18:31:05.976Z,4.40
2023-01-09T18:33:33.222Z,4.40
2023-01-09T18:36:09.996Z,4.40
2023-01-09T18:38:37.241Z,4.40
2023-01-09T18:41:05.004Z,4.40
2023-01-09T18:43:32.027Z,4.40
2023-01-09T18:45:58.845Z,4.40
2023-01-09T18:48:26.756Z,4.40
2023-01-09T18:51:03.142Z,4.40
2023-01-09T18:53:30.247Z,4.40
2023-01-09T18:55:57.065Z,4.40
2023-01-09T18:58:23.781Z,4.40
2023-01-09T19:00:51.540Z,4.40
2023-01-09T19:03:18.343Z,4.30
2023-01-09T19:05:45.094Z,4.30
2023-01-09T19:08:11.720Z,4.30
2023-01-09T19:10:38.441Z,4.30
2023-01-09T19:13:05.194Z,4.30
2023-01-09T19:15:32.034Z,4.30
2023-01-09T19:17:58.741Z,4.30
2023-01-09T19:20:25.461Z,4.30
2023-01-09T19:22:52.292Z,4.20
2023-01-09T19:25:19.049Z,4.20
2023-01-09T19:27:47.528Z,4.30
2023-01-09T19:30:14.688Z,4.20
2023-01-09T19:32:41.473Z,4.20
2023-01-09T19:35:08.648Z,4.20
2023-01-09T19:37:35.434Z,4.20
2023-01-09T19:40:02.250Z,4.20
2023-01-09T19:42:28.986Z,4.20
2023-01-09T19:44:55.784Z,4.30
2023-01-09T19:47:22.493Z,4.20
2023-01-09T19:49:49.346Z,4.20
2023-01-09T19:52:16.174Z,4.30
2023-01-09T19:54:43.130Z,4.20
2023-01-09T19:57:09.841Z,4.20
2023-01-09T19:59:37.276Z,4.20
2023-01-09T20:02:04.090Z,4.20
2023-01-09T20:04:32.085Z,4.20
2023-01-09T20:06:59.458Z,4.10
2023-01-09T20:09:38.153Z,4.10
2023-01-09T20:12:05.353Z,4.20
2023-01-09T20:14:32.177Z,4.20
2023-01-09T20:17:01.096Z,4.10
2023-01-09T20:19:30.545Z,4.10
2023-01-09T20:21:57.346Z,4.20
2023-01-09T20:24:24.260Z,4.10
2023-01-09T20:26:51.494Z,4.10
2023-01-09T20:29:18.266Z,4.10
2023-01-09T20:31:45.330Z,4.00
2023-01-09T20:34:13.468Z,4.00
2023-01-09T20:36:40.365Z,4.00
2023-01-09T20:39:10.503Z,4.10
2023-01-09T20:41:37.395Z,4.00
2023-01-09T20:44:07.176Z,4.10
2023-01-09T20:46:40.438Z,4.00
2023-01-09T20:49:09.868Z,4.00
2023-01-09T20:51:42.224Z,4.00
2023-01-09T20:54:09.661Z,4.00
2023-01-09T20:56:37.200Z,4.00
2023-01-09T20:59:06.288Z,4.00
2023-01-09T21:01:34.525Z,4.00
2023-01-09T21:04:01.414Z,4.00
2023-01-09T21:06:28.205Z,4.10
2023-01-09T21:08:55.272Z,4.00
2023-01-09T21:11:22.951Z,4.00
2023-01-09T21:13:50.946Z,4.10
2023-01-09T21:16:20.373Z,4.10
2023-01-09T21:18:48.145Z,4.00
2023-01-09T21:21:18.804Z,4.00
2023-01-09T21:23:47.902Z,4.00
2023-01-09T21:26:15.495Z,4.00
2023-01-09T21:28:49.426Z,4.00
2023-01-09T21:31:20.221Z,4.00
2023-01-09T21:33:47.960Z,4.00
2023-01-09T21:36:15.336Z,4.00
2023-01-09T21:38:42.167Z,4.00
2023-01-09T21:41:27.556Z,4.00
2023-01-09T21:44:12.791Z,4.00
2023-01-09T21:46:51.622Z,4.00
2023-01-09T21:49:19.860Z,4.00
2023-01-09T21:51:46.826Z,4.00
2023-01-09T21:54:13.558Z,4.00
2023-01-09T21:56:40.367Z,4.00
2023-01-09T21:59:07.350Z,4.00
2023-01-09T22:01:34.163Z,4.00
2023-01-09T22:04:00.987Z,4.10
2023-01-09T22:06:28.579Z,4.00
2023-01-09T22:08:56.196Z,4.10
2023-01-09T22:11:23.158Z,4.00
2023-01-09T22:13:50.903Z,4.00
2023-01-09T22:16:18.472Z,4.00
2023-01-09T22:18:45.521Z,4.00
2023-01-09T22:21:12.293Z,4.00
2023-01-09T22:23:39.065Z,4.00
2023-01-09T22:26:14.258Z,4.00
2023-01-09T22:28:42.078Z,4.00
2023-01-09T22:31:20.051Z,4.00
2023-01-09T22:33:54.058Z,4.00
2023-01-09T22:36:21.415Z,4.00
2023-01-09T22:38:48.311Z,4.00
2023-01-09T22:41:15.281Z,4.00
2023-01-09T22:43:42.355Z,4.00
2023-01-09T22:46:11.555Z,4.00
2023-01-09T22:48:39.170Z,4.00
2023-01-09T22:51:14.708Z,4.00
2023-01-09T22:53:42.022Z,4.00
2023-01-09T22:56:12.912Z,4.10
2023-01-09T22:58:40.120Z,4.00
2023-01-09T23:01:07.412Z,4.00
2023-01-09T23:03:34.185Z,4.00
2023-01-09T23:06:10.804Z,4.00
2023-01-09T23:08:38.209Z,4.00
2023-01-09T23:11:07.542Z,4.00
2023-01-09T23:13:34.368Z,4.00
2023-01-09T23:16:01.802Z,4.00
2023-01-09T23:18:28.777Z,3.90
2023-01-09T23:20:58.512Z,4.00
2023-01-09T23:23:27.313Z,4.00
2023-01-09T23:26:00.393Z,4.00
2023-01-09T23:28:28.168Z,4.00
2023-01-09T23:30:55.050Z,4.00
2023-01-09T23:33:21.888Z,4.00
2023-01-09T23:35:49.145Z,4.00
2023-01-09T23:38:16.513Z,4.00
2023-01-09T23:40:43.368Z,3.90
2023-01-09T23:43:15.003Z,3.90
2023-01-09T23:45:43.997Z,3.90
2023-01-09T23:48:13.712Z,3.90
2023-01-09T23:50:44.848Z,3.90
2023-01-09T23:53:11.616Z,3.90
2023-01-09T23:55:38.507Z,3.90
2023-01-09T23:58:05.212Z,3.90
